Terminal Aerodrome Forecast
Issued by NWS

Home | Current Version | Previous Version | Text Only | Print | Product List | Glossary On
Versions: 1 2 3 4 5 6 7 8 9 10 11 12 13 14 15 16 17 18 19 20 21 22 23 24 25 26
000
FTUS41 KPHI 210912 AAB
TAFMIV
TAF AMD
KMIV 210912Z 2109/2206 VRB04KT 3SM BR BKN002
      TEMPO 2109/2113 1/2SM -DZ FG
     FM211400 22008KT P6SM BKN027
     FM211600 23008G16KT P6SM SCT060
     FM220200 30004KT P6SM BKN080 PROB30 2202/2206 -SHRA=

USA.gov is the U.S. government's official web portal to all federal, state and local government web resources and services.